New York, New York
Traffic Map
Current Weather Conditions
New York, New York
Few Clouds
Few Clouds
22°
Feels Like: 22°
Wind Chill: 22° Ceiling: Unl
Heat Index: 22° Visibility: 10mi
Dew Point: 12° Wind: 0mph
Humidity: 53% Direction: ° ()
Pressure: 29.95in Gusts: 0mph
Raw Report DataKJRB 300055Z AUTO 00000KT 10SM FEW080 22/12 A2995 RMK AO1
Traffic Incident Summary
Active as of:
Severity:
Category:
InformationThere was an issue retrieving the traffic information for this location. Please try a different location or try again shortly.
Advertisements
Track Severe Weather on mobile